createdAt,value
2022-11-05T00:01:39.085Z,8.54
2022-11-05T00:04:30.806Z,8.59
2022-11-05T00:08:00.586Z,8.63
2022-11-05T00:10:44.407Z,8.51
2022-11-05T00:13:32.978Z,8.34
2022-11-05T00:16:21.374Z,8.34
2022-11-05T00:19:14.311Z,8.31
2022-11-05T00:22:02.163Z,8.25
2022-11-05T00:24:50.320Z,8.23
2022-11-05T00:27:29.784Z,8.31
2022-11-05T00:38:54.922Z,8.02
2022-11-05T00:41:37.457Z,8.10
2022-11-05T00:44:32.251Z,8.09
2022-11-05T00:47:19.338Z,8.15
2022-11-05T00:49:52.925Z,8.20
2022-11-05T00:52:57.818Z,8.15
2022-11-05T00:56:07.371Z,8.23
2022-11-05T01:05:20.774Z,8.23
2022-11-05T01:07:59.314Z,8.26
2022-11-05T01:10:55.283Z,8.23
2022-11-05T01:13:37.288Z,8.29
2022-11-05T01:16:16.089Z,8.31
2022-11-05T01:19:02.172Z,8.26
2022-11-05T01:22:14.710Z,8.22
2022-11-05T01:24:46.293Z,8.22
2022-11-05T01:27:13.034Z,8.24
2022-11-05T01:29:39.596Z,8.19
2022-11-05T01:32:06.274Z,8.16
2022-11-05T01:34:32.889Z,8.16
2022-11-05T01:36:59.573Z,8.13
2022-11-05T01:39:26.204Z,8.13
2022-11-05T01:41:52.939Z,8.10
2022-11-05T01:45:04.834Z,8.17
2022-11-05T01:47:45.755Z,8.16
2022-11-05T01:50:25.080Z,8.18
2022-11-05T01:52:58.133Z,8.13
2022-11-05T01:55:30.197Z,8.14
2022-11-05T01:57:59.916Z,8.14
2022-11-05T02:00:28.067Z,8.11
2022-11-05T02:02:55.206Z,8.16
2022-11-05T02:05:22.627Z,8.17
2022-11-05T02:07:50.304Z,8.21
2022-11-05T02:10:20.640Z,8.17
2022-11-05T02:12:50.631Z,8.16
2022-11-05T02:15:55.403Z,8.15
2022-11-05T02:18:38.605Z,8.14
2022-11-05T02:21:36.061Z,8.13
2022-11-05T02:24:20.061Z,8.11
2022-11-05T02:27:02.368Z,8.10
2022-11-05T02:30:07.779Z,8.12
2022-11-05T02:32:37.618Z,8.13
2022-11-05T02:35:25.259Z,8.10
2022-11-05T02:37:55.158Z,8.14
2022-11-05T02:40:59.518Z,8.17
2022-11-05T02:43:55.391Z,8.18
2022-11-05T02:46:26.815Z,8.18
2022-11-05T02:49:13.943Z,8.13
2022-11-05T02:51:58.276Z,8.11
2022-11-05T02:54:31.382Z,8.08
2022-11-05T02:57:00.510Z,8.14
2022-11-05T02:59:27.313Z,8.19
2022-11-05T03:02:00.550Z,8.26
2022-11-05T03:04:34.545Z,8.23
2022-11-05T03:07:01.374Z,8.20
2022-11-05T03:09:55.894Z,8.27
2022-11-05T03:12:57.148Z,8.26
2022-11-05T03:15:35.344Z,8.34
2022-11-05T03:18:23.842Z,8.35
2022-11-05T03:21:01.325Z,8.22
2022-11-05T03:23:37.610Z,8.15
2022-11-05T03:26:18.604Z,8.11
2022-11-05T03:28:51.878Z,8.21
2022-11-05T03:31:21.998Z,8.22
2022-11-05T03:33:52.184Z,8.18
2022-11-05T03:36:31.643Z,8.21
2022-11-05T03:39:05.487Z,8.23
2022-11-05T03:41:35.278Z,8.20
2022-11-05T03:44:06.137Z,8.23
2022-11-05T03:46:38.751Z,8.14
2022-11-05T03:49:15.728Z,8.09
2022-11-05T03:51:49.588Z,8.13
2022-11-05T03:54:16.771Z,8.15
2022-11-05T03:57:10.845Z,8.27
2022-11-05T03:59:46.300Z,8.14
2022-11-05T04:02:15.443Z,8.16
2022-11-05T04:04:44.576Z,8.20
2022-11-05T04:07:30.911Z,8.20
2022-11-05T04:10:16.336Z,8.25
2022-11-05T04:13:01.904Z,8.24
2022-11-05T04:15:51.707Z,8.22
2022-11-05T04:18:19.057Z,8.31
2022-11-05T04:21:06.621Z,8.34
2022-11-05T04:23:51.907Z,8.37
2022-11-05T04:26:23.600Z,8.34
2022-11-05T04:29:14.082Z,8.28
2022-11-05T04:31:40.950Z,8.29
2022-11-05T04:34:10.457Z,8.19
2022-11-05T04:36:39.658Z,8.17
2022-11-05T04:39:06.528Z,8.06
2022-11-05T04:41:33.570Z,7.97
2022-11-05T04:44:00.621Z,7.93
2022-11-05T04:46:27.554Z,7.91
2022-11-05T04:48:57.501Z,7.91
2022-11-05T04:51:27.469Z,8.03
2022-11-05T04:53:54.800Z,7.98
2022-11-05T04:56:30.241Z,7.98
2022-11-05T04:58:57.772Z,7.95
2022-11-05T05:01:27.188Z,8.01
2022-11-05T05:03:57.357Z,7.95
2022-11-05T05:06:24.452Z,8.02
2022-11-05T05:08:52.288Z,8.00
2022-11-05T05:11:21.501Z,8.00
2022-11-05T05:13:50.915Z,8.03
2022-11-05T05:16:24.186Z,8.08
2022-11-05T05:18:51.294Z,8.04
2022-11-05T05:21:41.500Z,8.04
2022-11-05T05:24:18.751Z,8.00
2022-11-05T05:26:49.458Z,8.01
2022-11-05T05:29:25.764Z,8.04
2022-11-05T05:31:55.103Z,7.99
2022-11-05T05:34:26.114Z,8.03
2022-11-05T05:36:53.504Z,7.98
2022-11-05T05:39:23.295Z,7.94
2022-11-05T05:41:50.775Z,7.97
2022-11-05T05:44:20.302Z,7.98
2022-11-05T05:47:01.658Z,8.00
2022-11-05T05:49:28.669Z,8.00
2022-11-05T05:51:57.009Z,8.03
2022-11-05T05:54:32.082Z,7.99
2022-11-05T05:57:09.217Z,8.00
2022-11-05T05:59:38.833Z,8.01
2022-11-05T06:04:50.134Z,8.09
2022-11-05T06:07:36.037Z,8.05
2022-11-05T06:10:06.292Z,8.05
2022-11-05T06:12:37.978Z,8.10
2022-11-05T06:15:11.342Z,8.18
2022-11-05T06:17:47.173Z,8.23
2022-11-05T06:20:15.598Z,8.29
2022-11-05T06:22:54.939Z,8.31
2022-11-05T06:25:28.124Z,8.35
2022-11-05T06:27:55.216Z,8.37
2022-11-05T06:30:23.597Z,8.40
2022-11-05T06:32:53.100Z,8.42
2022-11-05T06:35:19.981Z,8.46
2022-11-05T06:37:49.866Z,8.45
2022-11-05T06:40:16.822Z,8.46
2022-11-05T06:42:43.595Z,8.42
2022-11-05T06:45:11.045Z,8.47
2022-11-05T06:47:42.806Z,8.45
2022-11-05T06:50:11.123Z,8.51
2022-11-05T06:52:41.004Z,8.59
2022-11-05T06:55:11.089Z,8.54
2022-11-05T06:57:38.990Z,8.47
2022-11-05T07:00:08.201Z,8.40
2022-11-05T07:02:35.442Z,8.40
2022-11-05T07:05:05.315Z,8.36
2022-11-05T07:07:35.575Z,8.44
2022-11-05T07:10:02.817Z,8.47
2022-11-05T07:12:30.247Z,8.54
2022-11-05T07:15:00.263Z,8.58
2022-11-05T07:17:27.243Z,8.57
2022-11-05T07:19:56.481Z,8.63
2022-11-05T07:22:23.212Z,8.74
2022-11-05T07:24:50.367Z,8.88
2022-11-05T07:27:17.936Z,8.95
2022-11-05T07:29:44.927Z,8.82
2022-11-05T07:32:17.153Z,8.79
2022-11-05T07:34:44.271Z,8.82
2022-11-05T07:37:18.040Z,8.99
2022-11-05T07:39:45.080Z,9.05
2022-11-05T07:42:15.072Z,9.13
2022-11-05T07:44:42.274Z,9.18
2022-11-05T07:47:14.395Z,9.15
2022-11-05T07:49:42.807Z,9.23
2022-11-05T07:52:09.790Z,9.20
2022-11-05T07:54:40.485Z,9.10
2022-11-05T07:57:25.154Z,9.13
2022-11-05T07:59:52.081Z,9.27
2022-11-05T08:02:19.192Z,9.39
2022-11-05T08:09:31.446Z,9.60
2022-11-05T08:12:02.596Z,9.65
2022-11-05T08:14:31.554Z,9.64
2022-11-05T08:16:58.734Z,9.69
2022-11-05T08:19:28.134Z,9.68
2022-11-05T08:21:57.570Z,9.58
2022-11-05T08:24:27.182Z,9.55
2022-11-05T08:26:54.212Z,9.61
2022-11-05T08:29:21.142Z,9.48
2022-11-05T08:31:48.045Z,9.50
2022-11-05T08:34:14.804Z,9.34
2022-11-05T08:36:43.408Z,9.32
2022-11-05T08:39:17.086Z,9.50
2022-11-05T08:41:47.241Z,9.40
2022-11-05T08:44:19.471Z,9.57
2022-11-05T08:46:46.499Z,9.39
2022-11-05T08:49:14.675Z,9.66
2022-11-05T08:52:13.546Z,9.71
2022-11-05T08:54:51.952Z,9.82
2022-11-05T08:57:24.341Z,9.96
2022-11-05T09:03:05.806Z,10.13
2022-11-05T09:05:47.450Z,10.22
2022-11-05T09:08:27.651Z,9.99
2022-11-05T09:11:10.914Z,10.25
2022-11-05T09:13:44.890Z,10.33
2022-11-05T09:16:22.272Z,10.52
2022-11-05T09:18:50.384Z,10.53
2022-11-05T09:21:18.543Z,10.72
2022-11-05T09:23:57.441Z,10.82
2022-11-05T09:26:26.556Z,10.70
2022-11-05T09:28:59.413Z,10.83
2022-11-05T09:31:26.559Z,10.71
2022-11-05T09:34:04.626Z,10.95
2022-11-05T09:36:41.397Z,10.94
2022-11-05T09:39:20.137Z,10.78
2022-11-05T09:41:54.416Z,10.88
2022-11-05T09:44:46.195Z,11.08
2022-11-05T09:47:38.890Z,11.24
2022-11-05T10:52:43.965Z,11.99
2022-11-05T11:13:05.524Z,11.16
2022-11-05T11:37:19.224Z,11.29
2022-11-05T11:40:28.269Z,11.69
2022-11-05T11:43:08.878Z,11.78
2022-11-05T11:49:14.118Z,11.69
2022-11-05T11:52:12.288Z,11.99
2022-11-05T11:54:44.981Z,12.07
2022-11-05T11:57:26.874Z,11.65
2022-11-05T12:00:14.652Z,11.78
2022-11-05T12:02:49.829Z,11.83
2022-11-05T12:05:48.238Z,11.89
2022-11-05T12:17:25.741Z,11.82
2022-11-05T12:20:48.458Z,11.94
2022-11-05T12:24:07.630Z,12.17
2022-11-05T12:27:01.664Z,12.08
2022-11-05T12:29:53.824Z,12.33
2022-11-05T12:32:53.649Z,12.35
2022-11-05T12:35:48.986Z,12.41
2022-11-05T12:39:15.979Z,12.54
2022-11-05T12:42:30.695Z,12.54
2022-11-05T12:45:25.433Z,12.57
2022-11-05T12:48:45.701Z,12.54
2022-11-05T12:51:50.196Z,12.56
2022-11-05T12:58:18.913Z,12.67
2022-11-05T13:01:25.197Z,12.50
2022-11-05T13:05:00.308Z,12.01
2022-11-05T13:08:18.493Z,11.98
2022-11-05T13:15:49.323Z,11.23
2022-11-05T13:18:24.146Z,10.92
2022-11-05T13:25:53.599Z,10.97
2022-11-05T13:33:55.433Z,11.37
2022-11-05T13:49:47.473Z,11.08
2022-11-05T18:03:45.005Z,9.69
2022-11-05T18:06:54.900Z,9.67
2022-11-05T18:09:31.572Z,9.65
2022-11-05T18:12:09.054Z,9.55
2022-11-05T18:15:04.008Z,9.59
2022-11-05T18:17:30.632Z,9.60
2022-11-05T18:19:57.121Z,9.51
2022-11-05T18:22:23.741Z,9.52
2022-11-05T18:24:50.233Z,9.45
2022-11-05T18:27:16.662Z,9.48
2022-11-05T18:29:43.144Z,9.42
2022-11-05T18:32:09.640Z,9.32
2022-11-05T18:34:36.216Z,9.29
2022-11-05T18:37:03.365Z,9.28
2022-11-05T18:39:29.863Z,9.32
2022-11-05T18:41:56.324Z,9.33
2022-11-05T18:44:24.643Z,9.29
2022-11-05T18:46:58.241Z,9.42
2022-11-05T18:49:26.035Z,9.38
2022-11-05T18:51:52.601Z,9.32
2022-11-05T18:54:19.588Z,9.20
2022-11-05T18:56:46.487Z,9.25
2022-11-05T18:59:35.762Z,9.20
2022-11-05T19:02:02.457Z,9.19
2022-11-05T19:04:30.459Z,9.14
2022-11-05T19:07:01.505Z,9.13
2022-11-05T19:09:30.761Z,9.05
2022-11-05T19:11:57.257Z,9.04
2022-11-05T19:14:24.816Z,8.99
2022-11-05T19:16:51.310Z,8.96
2022-11-05T19:19:17.759Z,8.87
2022-11-05T19:21:44.470Z,8.83
2022-11-05T19:24:16.586Z,8.81
2022-11-05T19:26:48.029Z,8.77
2022-11-05T19:29:15.018Z,8.72
2022-11-05T19:31:41.852Z,8.77
2022-11-05T19:34:08.545Z,8.76
2022-11-05T19:36:35.044Z,8.65
2022-11-05T19:39:06.232Z,8.72
2022-11-05T19:41:32.718Z,8.68
2022-11-05T19:44:01.423Z,8.71
2022-11-05T19:46:28.777Z,8.71
2022-11-05T19:48:55.605Z,8.68
2022-11-05T19:51:24.405Z,8.61
2022-11-05T19:53:52.664Z,8.55
2022-11-05T19:56:27.779Z,8.52
2022-11-05T19:58:54.426Z,8.47
2022-11-05T20:01:22.809Z,8.29
2022-11-05T20:03:49.888Z,8.18
2022-11-05T20:06:22.928Z,8.11
2022-11-05T20:11:37.662Z,8.01
2022-11-05T20:14:07.391Z,7.98
2022-11-05T20:16:39.931Z,7.95
2022-11-05T20:19:09.945Z,8.07
2022-11-05T20:21:36.938Z,8.20
2022-11-05T20:24:03.740Z,8.32
2022-11-05T20:26:30.929Z,8.31
2022-11-05T20:28:57.392Z,8.22
2022-11-05T20:31:23.955Z,8.28
2022-11-05T20:33:51.159Z,8.24
2022-11-05T20:36:22.098Z,8.19
2022-11-05T20:38:50.658Z,8.27
2022-11-05T20:41:17.976Z,8.17
2022-11-05T20:43:45.092Z,8.16
2022-11-05T20:46:14.137Z,8.13
2022-11-05T20:48:40.708Z,8.11
2022-11-05T20:51:12.506Z,8.29
2022-11-05T20:53:39.208Z,8.28
2022-11-05T20:56:09.628Z,8.23
2022-11-05T20:58:37.588Z,8.21
2022-11-05T21:01:05.468Z,8.28
2022-11-05T21:03:32.140Z,8.37
2022-11-05T21:05:59.882Z,8.40
2022-11-05T21:08:27.707Z,8.39
2022-11-05T21:10:55.155Z,8.38
2022-11-05T21:13:22.978Z,8.36
2022-11-05T21:15:54.623Z,8.40
2022-11-05T21:18:23.736Z,8.35
2022-11-05T21:20:51.033Z,8.30
2022-11-05T21:23:17.573Z,8.26
2022-11-05T21:25:44.674Z,8.29
2022-11-05T21:28:13.259Z,8.35
2022-11-05T21:30:42.581Z,8.41
2022-11-05T21:33:09.037Z,8.36
2022-11-05T21:35:43.919Z,8.45
2022-11-05T21:38:11.998Z,8.46
2022-11-05T21:40:38.943Z,8.37
2022-11-05T21:43:05.622Z,8.41
2022-11-05T21:45:32.498Z,8.38
2022-11-05T21:47:58.941Z,8.33
2022-11-05T21:50:44.484Z,8.28
2022-11-05T21:53:33.950Z,8.16
2022-11-05T21:56:19.173Z,8.14
2022-11-05T21:59:04.227Z,8.08
2022-11-05T22:01:31.616Z,8.01
2022-11-05T22:04:02.924Z,7.84
2022-11-05T22:06:32.853Z,7.71
2022-11-05T22:08:59.589Z,7.61
2022-11-05T22:11:26.124Z,7.52
2022-11-05T22:13:53.296Z,7.56
2022-11-05T22:16:19.771Z,7.59
2022-11-05T22:18:46.328Z,7.55
2022-11-05T22:21:19.251Z,7.47
2022-11-05T22:23:45.724Z,7.44
2022-11-05T22:26:12.342Z,7.40
2022-11-05T22:28:38.905Z,7.31
2022-11-05T22:31:12.336Z,7.42
2022-11-05T22:33:38.838Z,7.44
2022-11-05T22:36:05.571Z,7.49
2022-11-05T22:38:32.089Z,7.46
2022-11-05T22:40:58.577Z,7.37
2022-11-05T22:43:25.100Z,7.31
2022-11-05T22:45:51.488Z,7.34
2022-11-05T22:48:17.897Z,7.41
2022-11-05T22:50:44.338Z,7.37
2022-11-05T22:53:10.764Z,7.36
2022-11-05T22:55:40.292Z,7.31
2022-11-05T22:58:06.741Z,7.27
2022-11-05T23:00:37.291Z,7.34
2022-11-05T23:03:03.973Z,7.37
2022-11-05T23:05:30.520Z,7.32
2022-11-05T23:08:15.895Z,7.25
2022-11-05T23:11:00.906Z,7.18
2022-11-05T23:13:27.319Z,7.15
2022-11-05T23:16:12.435Z,7.04
2022-11-05T23:18:57.201Z,6.90
2022-11-05T23:21:42.036Z,6.84
2022-11-05T23:24:08.595Z,6.79
2022-11-05T23:26:51.503Z,6.80
2022-11-05T23:29:23.488Z,6.77
2022-11-05T23:32:09.095Z,6.80
2022-11-05T23:34:35.741Z,6.80
2022-11-05T23:37:21.369Z,6.75
2022-11-05T23:39:47.954Z,6.70
2022-11-05T23:42:33.055Z,6.66
2022-11-05T23:45:17.841Z,6.66
2022-11-05T23:48:03.539Z,6.74
2022-11-05T23:50:34.432Z,6.65
2022-11-05T23:53:05.375Z,6.65
2022-11-05T23:55:31.837Z,6.72
2022-11-05T23:57:58.276Z,6.67
